Time;durP1;ratioP1;P1;durP2;ratioP2;P2;SDS_P1;SDS_P2;PMS_P1;PMS_P2;Temp;Humidity;BMP_temperature;BMP_pressure;BME280_temperature;BME280_humidity;BME280_pressure;Samples;Min_cycle;Max_cycle;Signal;HPM_P1;HPM_P2
2022/12/04 00:01:35;;;;;;;;;;;22.10;99.90;;;;;;5055377;28;19909;-66
2022/12/04 00:04:02;;;;;;;;;;;22.30;99.90;;;;;;5049519;28;20417;-67
2022/12/04 00:06:29;;;;;;;;;;;22.60;99.90;;;;;;5045206;28;19960;-67
2022/12/04 00:08:56;;;;;;;;;;;22.90;99.90;;;;;;5046979;28;20460;-67
2022/12/04 00:11:24;;;;;;;;;;;22.90;99.90;;;;;;5047379;28;19920;-67
2022/12/04 00:13:51;;;;;;;;;;;23.00;99.90;;;;;;5026983;28;20391;-67
2022/12/04 00:16:19;;;;;;;;;;;23.10;99.90;;;;;;5027437;28;19924;-69
2022/12/04 00:18:46;;;;;;;;;;;23.10;99.90;;;;;;5046924;28;20445;-69
2022/12/04 00:21:14;;;;;;;;;;;22.90;99.90;;;;;;5045048;28;19921;-69
2022/12/04 00:23:41;;;;;;;;;;;22.90;99.90;;;;;;5045547;28;19920;-69
2022/12/04 00:26:09;;;;;;;;;;;22.80;99.90;;;;;;5045522;28;19913;-68
2022/12/04 00:28:36;;;;;;;;;;;22.80;99.90;;;;;;5045403;28;20066;-69
2022/12/04 00:31:06;;;;;;;;;;;22.90;99.90;;;;;;5042866;28;19939;-68
2022/12/04 00:33:33;;;;;;;;;;;23.10;99.90;;;;;;5045327;28;19967;-70
2022/12/04 00:36:01;;;;;;;;;;;23.10;99.90;;;;;;5044751;28;19925;-69
2022/12/04 00:38:27;;;;;;;;;;;23.00;99.90;;;;;;5044413;28;19924;-70
2022/12/04 00:40:54;;;;;;;;;;;22.90;99.90;;;;;;5045274;28;19960;-68
2022/12/04 00:43:21;;;;;;;;;;;22.90;99.90;;;;;;5044403;28;19917;-69
2022/12/04 00:45:48;;;;;;;;;;;22.90;99.90;;;;;;5044272;28;19920;-69
2022/12/04 00:48:14;;;;;;;;;;;23.00;99.90;;;;;;5045357;28;19913;-67
2022/12/04 00:50:41;;;;;;;;;;;23.50;99.90;;;;;;5044455;28;19975;-69
2022/12/04 00:53:08;;;;;;;;;;;24.10;99.90;;;;;;5044638;28;19913;-70
2022/12/04 00:55:37;;;;;;;;;;;24.30;99.90;;;;;;5043124;28;20349;-69
2022/12/04 00:58:04;;;;;;;;;;;24.20;99.90;;;;;;5042688;28;19925;-69
2022/12/04 01:00:31;;;;;;;;;;;24.10;99.90;;;;;;5044765;28;19917;-69
2022/12/04 01:02:57;;;;;;;;;;;23.70;99.90;;;;;;5043544;28;19916;-70
2022/12/04 01:05:24;;;;;;;;;;;23.80;99.90;;;;;;5044818;28;19912;-69
2022/12/04 01:07:51;;;;;;;;;;;24.30;99.90;;;;;;5043073;28;19916;-70
2022/12/04 01:10:18;;;;;;;;;;;25.40;99.90;;;;;;5044483;28;19928;-70
2022/12/04 01:12:48;;;;;;;;;;;26.00;99.20;;;;;;5042834;28;20015;-69
2022/12/04 01:15:15;;;;;;;;;;;26.30;98.90;;;;;;5044613;28;20375;-69
2022/12/04 01:17:44;;;;;;;;;;;26.40;98.20;;;;;;5044053;28;19913;-69
2022/12/04 01:20:14;;;;;;;;;;;26.60;97.70;;;;;;5044235;28;20104;-69
2022/12/04 01:22:40;;;;;;;;;;;26.70;97.60;;;;;;5043515;28;19942;-69
2022/12/04 01:25:07;;;;;;;;;;;26.90;97.90;;;;;;5044636;28;19916;-70
2022/12/04 01:27:34;;;;;;;;;;;27.00;97.50;;;;;;5043810;28;19924;-70
2022/12/04 01:30:01;;;;;;;;;;;27.20;97.70;;;;;;5044571;28;19924;-69
2022/12/04 01:32:28;;;;;;;;;;;27.50;97.60;;;;;;5043520;28;19958;-69
2022/12/04 01:34:55;;;;;;;;;;;27.30;98.20;;;;;;5044223;28;19913;-69
2022/12/04 01:37:22;;;;;;;;;;;27.60;97.10;;;;;;5024424;28;19916;-69
2022/12/04 01:39:49;;;;;;;;;;;27.40;97.30;;;;;;5044667;28;19913;-69
2022/12/04 01:42:15;;;;;;;;;;;27.00;97.40;;;;;;5042890;28;19916;-69
2022/12/04 01:44:43;;;;;;;;;;;26.50;97.00;;;;;;5043578;28;19917;-69
2022/12/04 01:47:10;;;;;;;;;;;25.90;97.60;;;;;;5043793;28;20766;-68
2022/12/04 01:49:38;;;;;;;;;;;25.40;98.70;;;;;;5043837;28;20508;-67
2022/12/04 01:52:08;;;;;;;;;;;25.00;99.60;;;;;;5043597;28;19917;-66
2022/12/04 01:54:36;;;;;;;;;;;24.50;99.90;;;;;;5044557;28;20448;-66
2022/12/04 01:57:12;;;;;;;;;;;24.50;99.90;;;;;;5043624;28;20294;-67
2022/12/04 01:59:49;;;;;;;;;;;24.30;99.90;;;;;;5044745;28;19927;-65
2022/12/04 02:02:17;;;;;;;;;;;24.10;99.90;;;;;;5044022;28;19937;-69
2022/12/04 02:04:44;;;;;;;;;;;24.20;99.90;;;;;;5043894;28;19921;-69
2022/12/04 02:07:11;;;;;;;;;;;24.20;99.90;;;;;;5046523;28;20664;-70
2022/12/04 02:09:38;;;;;;;;;;;24.10;99.90;;;;;;5048622;28;19921;-69
2022/12/04 02:12:10;;;;;;;;;;;24.20;99.90;;;;;;5047651;28;19916;-70
2022/12/04 02:14:37;;;;;;;;;;;24.30;99.90;;;;;;5048030;28;20291;-69
2022/12/04 02:17:27;;;;;;;;;;;24.30;99.90;;;;;;5047204;28;20413;-69
2022/12/04 02:19:54;;;;;;;;;;;24.10;99.90;;;;;;5048329;28;19913;-67
2022/12/04 02:22:43;;;;;;;;;;;24.10;99.90;;;;;;5047383;28;20395;-68
2022/12/04 02:25:42;;;;;;;;;;;24.00;99.90;;;;;;5034297;28;19916;-70
2022/12/04 02:28:22;;;;;;;;;;;24.00;99.90;;;;;;5001318;28;19923;-68
2022/12/04 02:30:50;;;;;;;;;;;24.10;99.90;;;;;;5048022;28;19921;-69
2022/12/04 02:33:26;;;;;;;;;;;24.10;99.90;;;;;;5045880;28;19917;-70
2022/12/04 02:36:02;;;;;;;;;;;23.90;99.90;;;;;;5047687;28;20007;-68
2022/12/04 02:38:36;;;;;;;;;;;23.70;99.90;;;;;;5046054;28;19986;-69
2022/12/04 02:41:08;;;;;;;;;;;23.60;99.90;;;;;;5047186;28;19913;-70
2022/12/04 02:43:38;;;;;;;;;;;23.50;99.90;;;;;;5031033;28;19917;-70
2022/12/04 02:46:10;;;;;;;;;;;23.60;99.90;;;;;;5027292;28;19913;-70
2022/12/04 02:48:39;;;;;;;;;;;23.60;99.90;;;;;;5043220;28;19921;-70
2022/12/04 02:51:07;;;;;;;;;;;23.50;99.90;;;;;;5046369;28;20712;-69
2022/12/04 02:53:45;;;;;;;;;;;23.50;99.90;;;;;;5046335;28;19943;-70
2022/12/04 02:56:14;;;;;;;;;;;23.50;99.90;;;;;;5047279;28;19962;-68
2022/12/04 02:58:50;;;;;;;;;;;23.40;99.90;;;;;;5046599;28;19936;-70
2022/12/04 03:01:19;;;;;;;;;;;23.50;99.90;;;;;;5047226;28;19913;-69
2022/12/04 03:03:52;;;;;;;;;;;23.60;99.90;;;;;;5046232;28;20459;-70
2022/12/04 03:06:19;;;;;;;;;;;23.70;99.90;;;;;;5046362;28;19912;-69
2022/12/04 03:08:48;;;;;;;;;;;23.70;99.90;;;;;;5045215;28;20059;-70
2022/12/04 03:11:15;;;;;;;;;;;23.70;99.90;;;;;;5046820;28;20450;-69
2022/12/04 03:13:48;;;;;;;;;;;23.60;99.90;;;;;;5046125;28;20568;-68
2022/12/04 03:16:15;;;;;;;;;;;23.60;99.90;;;;;;5046591;28;20354;-68
2022/12/04 03:18:44;;;;;;;;;;;23.60;99.90;;;;;;5045260;28;19916;-68
2022/12/04 03:21:17;;;;;;;;;;;23.70;99.90;;;;;;5045570;28;19916;-68
2022/12/04 03:24:01;;;;;;;;;;;23.60;99.90;;;;;;5046922;28;19913;-67
2022/12/04 03:26:33;;;;;;;;;;;23.60;99.90;;;;;;5046038;28;19924;-69
2022/12/04 03:29:14;;;;;;;;;;;23.50;99.90;;;;;;5045070;28;19968;-69
2022/12/04 03:31:47;;;;;;;;;;;23.60;99.90;;;;;;5046611;28;19913;-69
2022/12/04 03:34:19;;;;;;;;;;;23.50;99.90;;;;;;5045633;28;20015;-69
2022/12/04 03:36:51;;;;;;;;;;;23.40;99.90;;;;;;5044993;28;19931;-70
2022/12/04 03:39:38;;;;;;;;;;;23.50;99.90;;;;;;5026255;28;19920;-69
2022/12/04 03:42:12;;;;;;;;;;;23.50;99.90;;;;;;5028887;28;20095;-68
2022/12/04 03:44:43;;;;;;;;;;;23.50;99.90;;;;;;5046325;28;20367;-70
2022/12/04 03:47:10;;;;;;;;;;;23.40;99.90;;;;;;5044579;28;19924;-68
2022/12/04 03:49:37;;;;;;;;;;;23.40;99.90;;;;;;5045630;28;19970;-70
2022/12/04 03:52:12;;;;;;;;;;;23.20;99.90;;;;;;5045895;28;20299;-70
2022/12/04 03:54:58;;;;;;;;;;;23.20;99.90;;;;;;5045698;28;19940;-70
2022/12/04 03:57:30;;;;;;;;;;;23.10;99.90;;;;;;5045471;28;20020;-69
2022/12/04 04:00:00;;;;;;;;;;;23.10;99.90;;;;;;5044887;28;20363;-70
2022/12/04 04:02:32;;;;;;;;;;;23.10;99.90;;;;;;5045113;28;20295;-69
2022/12/04 04:04:59;;;;;;;;;;;23.20;99.90;;;;;;5045749;28;20011;-70
2022/12/04 04:07:30;;;;;;;;;;;23.30;99.90;;;;;;5044033;28;19996;-68
2022/12/04 04:09:59;;;;;;;;;;;23.30;99.90;;;;;;5045781;28;19928;-68
2022/12/04 04:12:28;;;;;;;;;;;23.40;99.90;;;;;;5045052;28;19917;-69
2022/12/04 04:26:08;;;;;;;;;;;23.20;99.90;;;;;;5044753;28;20614;-68
2022/12/04 04:28:37;;;;;;;;;;;23.30;99.90;;;;;;5044692;28;19952;-70
2022/12/04 04:31:12;;;;;;;;;;;23.30;99.90;;;;;;5044754;28;19970;-70
2022/12/04 04:33:47;;;;;;;;;;;23.30;99.90;;;;;;5045404;28;19933;-71
2022/12/04 04:36:39;;;;;;;;;;;23.20;99.90;;;;;;5044422;28;19912;-67
2022/12/04 04:39:15;;;;;;;;;;;23.20;99.90;;;;;;5042108;28;20015;-69
2022/12/04 04:41:47;;;;;;;;;;;23.30;99.90;;;;;;5045271;28;20034;-71
2022/12/04 04:44:24;;;;;;;;;;;23.20;99.90;;;;;;5044524;28;19924;-70
2022/12/04 04:46:54;;;;;;;;;;;23.10;99.90;;;;;;5044884;28;19913;-69
2022/12/04 04:49:23;;;;;;;;;;;23.20;99.90;;;;;;5044416;28;19921;-70
2022/12/04 04:51:50;;;;;;;;;;;23.00;99.90;;;;;;5044791;28;20074;-71
2022/12/04 04:54:17;;;;;;;;;;;22.90;99.90;;;;;;5044293;28;20031;-68
2022/12/04 04:56:45;;;;;;;;;;;22.80;99.90;;;;;;5044073;28;19931;-69
2022/12/04 04:59:13;;;;;;;;;;;22.90;99.90;;;;;;5045104;28;20059;-70
2022/12/04 05:01:41;;;;;;;;;;;22.80;99.90;;;;;;5043703;28;19921;-69
2022/12/04 05:04:07;;;;;;;;;;;22.80;99.90;;;;;;5044662;28;20679;-70
2022/12/04 05:06:34;;;;;;;;;;;22.70;99.90;;;;;;5043724;28;19916;-70
2022/12/04 05:09:01;;;;;;;;;;;22.70;99.90;;;;;;5043742;28;19925;-71
2022/12/04 05:11:27;;;;;;;;;;;22.70;99.90;;;;;;5043901;28;19916;-71
2022/12/04 05:13:54;;;;;;;;;;;22.60;99.90;;;;;;5044666;28;19913;-70
2022/12/04 05:16:22;;;;;;;;;;;22.70;99.90;;;;;;5043904;28;20531;-70
2022/12/04 05:21:33;;;;;;;;;;;22.70;99.90;;;;;;5044051;28;19923;-70
2022/12/04 05:24:00;;;;;;;;;;;22.70;99.90;;;;;;5044772;28;19964;-70
2022/12/04 05:26:27;;;;;;;;;;;22.70;99.90;;;;;;5042610;28;20011;-67
2022/12/04 05:28:53;;;;;;;;;;;22.70;99.90;;;;;;5043501;28;20050;-71
2022/12/04 05:31:20;;;;;;;;;;;22.60;99.90;;;;;;5043943;28;20063;-68
2022/12/04 05:33:47;;;;;;;;;;;22.50;99.90;;;;;;5043885;28;19916;-68
2022/12/04 05:36:13;;;;;;;;;;;22.40;99.90;;;;;;5043663;28;20466;-71
2022/12/04 05:38:40;;;;;;;;;;;22.40;99.90;;;;;;5044606;28;19960;-69
2022/12/04 05:41:07;;;;;;;;;;;22.30;99.90;;;;;;5045507;28;19947;-68
2022/12/04 05:43:34;;;;;;;;;;;22.30;99.90;;;;;;5057024;28;19913;-70
2022/12/04 05:46:02;;;;;;;;;;;22.30;99.90;;;;;;5057057;28;19909;-70
2022/12/04 05:48:29;;;;;;;;;;;22.30;99.90;;;;;;5055963;28;19912;-70
2022/12/04 05:50:55;;;;;;;;;;;22.40;99.90;;;;;;5056825;28;19909;-70
2022/12/04 05:53:22;;;;;;;;;;;22.40;99.90;;;;;;5056056;28;19920;-70
2022/12/04 05:55:55;;;;;;;;;;;22.40;99.90;;;;;;5055721;28;20038;-71
2022/12/04 05:58:22;;;;;;;;;;;22.40;99.90;;;;;;5056152;28;19917;-70
2022/12/04 06:00:49;;;;;;;;;;;22.30;99.90;;;;;;5056716;28;19909;-71
2022/12/04 06:03:15;;;;;;;;;;;22.10;99.90;;;;;;5037329;28;20387;-70
2022/12/04 06:05:42;;;;;;;;;;;22.10;99.90;;;;;;5054841;28;19909;-71
2022/12/04 06:08:09;;;;;;;;;;;22.00;99.90;;;;;;5048294;28;20288;-68
2022/12/04 06:10:35;;;;;;;;;;;22.00;99.90;;;;;;5054416;28;20032;-68
2022/12/04 06:13:03;;;;;;;;;;;22.00;99.90;;;;;;5053376;28;19917;-67
2022/12/04 06:15:30;;;;;;;;;;;22.00;99.90;;;;;;5054922;28;19952;-68
2022/12/04 06:17:57;;;;;;;;;;;21.90;99.90;;;;;;5054896;28;20322;-67
2022/12/04 06:20:23;;;;;;;;;;;22.00;99.90;;;;;;5055318;28;20016;-68
2022/12/04 06:22:50;;;;;;;;;;;22.00;99.90;;;;;;5056296;28;20268;-68
2022/12/04 06:25:17;;;;;;;;;;;21.90;99.90;;;;;;5055494;28;20371;-68
2022/12/04 06:27:43;;;;;;;;;;;21.90;99.90;;;;;;5055276;28;19959;-68
2022/12/04 06:30:10;;;;;;;;;;;21.80;99.90;;;;;;5056040;28;19920;-68
2022/12/04 06:32:37;;;;;;;;;;;21.80;99.90;;;;;;5055440;28;19913;-68
2022/12/04 06:35:05;;;;;;;;;;;21.70;99.90;;;;;;5056052;28;19915;-67
2022/12/04 06:37:33;;;;;;;;;;;21.60;99.90;;;;;;5055228;28;19966;-68
2022/12/04 06:39:59;;;;;;;;;;;21.60;99.90;;;;;;5056105;28;20245;-69
2022/12/04 06:42:26;;;;;;;;;;;21.70;99.90;;;;;;5053984;28;19947;-68
2022/12/04 06:44:52;;;;;;;;;;;21.70;99.90;;;;;;5055737;28;20425;-67
2022/12/04 06:47:19;;;;;;;;;;;21.70;99.90;;;;;;5035858;28;19913;-67
2022/12/04 06:49:48;;;;;;;;;;;21.70;99.90;;;;;;5036116;28;19924;-67
2022/12/04 06:52:15;;;;;;;;;;;21.60;99.90;;;;;;5054134;28;20310;-68
2022/12/04 06:54:41;;;;;;;;;;;21.60;99.90;;;;;;5055971;28;20370;-68
2022/12/04 06:57:08;;;;;;;;;;;21.50;99.90;;;;;;5053765;28;19920;-67
2022/12/04 06:59:35;;;;;;;;;;;21.40;99.90;;;;;;5054851;28;19935;-67
2022/12/04 07:02:02;;;;;;;;;;;21.40;99.90;;;;;;5055702;28;19909;-66
2022/12/04 07:04:32;;;;;;;;;;;21.40;99.90;;;;;;5054371;28;20213;-67
2022/12/04 07:06:59;;;;;;;;;;;21.40;99.90;;;;;;5054514;28;19959;-68
2022/12/04 07:09:25;;;;;;;;;;;21.40;99.90;;;;;;5055636;28;19921;-68
2022/12/04 07:11:53;;;;;;;;;;;21.40;99.90;;;;;;5048671;28;19913;-68
2022/12/04 07:14:20;;;;;;;;;;;21.40;99.90;;;;;;5053980;28;19913;-68
2022/12/04 07:16:47;;;;;;;;;;;21.30;99.90;;;;;;5054055;28;20326;-68
2022/12/04 07:19:13;;;;;;;;;;;21.30;99.90;;;;;;5054403;28;20422;-68
2022/12/04 07:21:40;;;;;;;;;;;21.20;99.90;;;;;;5053745;28;19951;-68
2022/12/04 07:24:07;;;;;;;;;;;21.20;99.90;;;;;;5054529;28;19913;-67
2022/12/04 07:26:34;;;;;;;;;;;21.10;99.90;;;;;;5055428;28;19909;-68
2022/12/04 07:29:01;;;;;;;;;;;21.10;99.90;;;;;;5052346;28;20894;-67
2022/12/04 07:31:28;;;;;;;;;;;21.10;99.90;;;;;;5048577;28;19975;-68
2022/12/04 07:33:55;;;;;;;;;;;21.10;99.90;;;;;;5054269;28;19913;-67
2022/12/04 07:36:22;;;;;;;;;;;21.10;99.90;;;;;;5053801;28;19984;-67
2022/12/04 07:38:49;;;;;;;;;;;21.00;99.90;;;;;;5054973;28;20445;-67
2022/12/04 07:41:16;;;;;;;;;;;21.10;99.90;;;;;;5054163;28;20005;-69
2022/12/04 07:43:42;;;;;;;;;;;21.10;99.90;;;;;;5054866;28;19968;-66
2022/12/04 07:46:13;;;;;;;;;;;21.00;99.90;;;;;;5053899;28;19999;-67
2022/12/04 07:48:40;;;;;;;;;;;21.00;99.90;;;;;;5054605;28;19970;-70
2022/12/04 07:51:08;;;;;;;;;;;21.00;99.90;;;;;;5054729;28;20434;-66
2022/12/04 07:53:35;;;;;;;;;;;20.90;99.90;;;;;;5054656;28;19912;-67
2022/12/04 07:56:03;;;;;;;;;;;20.80;99.90;;;;;;5054623;28;19917;-66
2022/12/04 07:58:31;;;;;;;;;;;20.80;99.90;;;;;;5052577;28;19920;-68
2022/12/04 08:01:08;;;;;;;;;;;20.80;99.90;;;;;;5054448;28;19914;-67
2022/12/04 08:03:34;;;;;;;;;;;20.80;99.90;;;;;;5052835;28;19908;-68
2022/12/04 08:06:02;;;;;;;;;;;20.70;99.90;;;;;;5048743;28;19924;-68
2022/12/04 08:08:29;;;;;;;;;;;20.60;99.90;;;;;;5044882;28;20076;-68
2022/12/04 08:10:56;;;;;;;;;;;20.60;99.90;;;;;;5044713;28;19931;-68
2022/12/04 08:13:22;;;;;;;;;;;20.50;99.90;;;;;;5045369;28;20621;-68
2022/12/04 08:15:49;;;;;;;;;;;20.50;99.90;;;;;;5045491;28;19924;-68
2022/12/04 08:18:16;;;;;;;;;;;20.50;99.90;;;;;;5045639;28;20421;-68
2022/12/04 08:20:43;;;;;;;;;;;20.40;99.90;;;;;;5044457;28;19919;-68
2022/12/04 08:23:09;;;;;;;;;;;20.40;99.90;;;;;;5045745;28;19917;-69
2022/12/04 08:25:40;;;;;;;;;;;20.40;99.90;;;;;;5043958;28;20007;-68
2022/12/04 08:28:07;;;;;;;;;;;20.40;99.90;;;;;;5045761;28;19923;-68
2022/12/04 08:30:34;;;;;;;;;;;20.30;99.90;;;;;;5044769;28;19921;-67
2022/12/04 08:33:01;;;;;;;;;;;20.30;99.90;;;;;;5045158;28;19960;-70
2022/12/04 08:35:28;;;;;;;;;;;20.30;99.90;;;;;;5044619;28;20468;-69
2022/12/04 08:37:55;;;;;;;;;;;20.30;99.90;;;;;;5039363;28;19928;-68
2022/12/04 08:40:22;;;;;;;;;;;20.30;99.90;;;;;;5045163;28;19993;-67
2022/12/04 08:42:48;;;;;;;;;;;20.30;99.90;;;;;;5044010;28;19912;-67
2022/12/04 08:45:15;;;;;;;;;;;20.20;99.90;;;;;;5044253;28;19916;-69
2022/12/04 08:47:42;;;;;;;;;;;20.20;99.90;;;;;;5045290;28;19913;-69
2022/12/04 08:50:09;;;;;;;;;;;20.20;99.90;;;;;;5043407;28;19921;-68
2022/12/04 08:52:35;;;;;;;;;;;20.20;99.90;;;;;;5043207;28;20442;-68
2022/12/04 08:55:02;;;;;;;;;;;20.20;99.90;;;;;;5044906;28;19913;-66
2022/12/04 08:57:29;;;;;;;;;;;20.10;99.90;;;;;;5044247;28;19925;-67
2022/12/04 08:59:55;;;;;;;;;;;20.20;99.90;;;;;;5044548;28;19912;-67
2022/12/04 09:02:22;;;;;;;;;;;20.20;99.90;;;;;;5044581;28;19974;-67
2022/12/04 09:04:49;;;;;;;;;;;20.10;99.90;;;;;;5043698;28;19916;-67
2022/12/04 09:07:15;;;;;;;;;;;20.10;99.90;;;;;;5027841;28;19917;-67
2022/12/04 09:09:42;;;;;;;;;;;20.00;99.90;;;;;;5025050;28;19917;-67
2022/12/04 09:12:09;;;;;;;;;;;20.00;99.90;;;;;;5039904;28;19916;-67
2022/12/04 09:14:36;;;;;;;;;;;20.00;99.90;;;;;;5044022;28;20252;-67
2022/12/04 09:17:02;;;;;;;;;;;20.00;99.90;;;;;;5042902;28;19923;-67
2022/12/04 09:19:30;;;;;;;;;;;20.00;99.90;;;;;;5044608;28;19920;-67
2022/12/04 09:21:57;;;;;;;;;;;19.90;99.90;;;;;;5047385;28;20352;-66
2022/12/04 09:24:24;;;;;;;;;;;19.90;99.90;;;;;;5033331;28;19909;-66
2022/12/04 09:26:50;;;;;;;;;;;19.90;99.90;;;;;;5038338;28;20004;-67
2022/12/04 09:29:17;;;;;;;;;;;19.90;99.90;;;;;;5052159;28;19960;-67
2022/12/04 09:31:44;;;;;;;;;;;19.90;99.90;;;;;;5052242;28;20359;-67
2022/12/04 09:34:13;;;;;;;;;;;19.90;99.90;;;;;;5052307;28;19962;-67
2022/12/04 09:36:40;;;;;;;;;;;19.90;99.90;;;;;;5053034;28;19912;-67
2022/12/04 09:39:06;;;;;;;;;;;19.80;99.90;;;;;;5051941;28;19909;-67
2022/12/04 09:41:36;;;;;;;;;;;19.90;99.90;;;;;;5052343;28;19920;-70
2022/12/04 09:44:09;;;;;;;;;;;19.80;99.90;;;;;;5051527;28;19967;-69
2022/12/04 09:46:42;;;;;;;;;;;19.80;99.90;;;;;;5047423;28;19924;-71
2022/12/04 09:49:29;;;;;;;;;;;19.80;99.90;;;;;;5044384;28;19917;-70
2022/12/04 09:51:57;;;;;;;;;;;19.80;99.90;;;;;;5044514;28;19920;-71
2022/12/04 09:54:26;;;;;;;;;;;19.80;99.90;;;;;;5044467;28;20282;-69
2022/12/04 09:56:54;;;;;;;;;;;19.80;99.90;;;;;;5042217;28;19932;-70
2022/12/04 09:59:23;;;;;;;;;;;19.80;99.90;;;;;;5043462;28;20381;-69
2022/12/04 10:01:58;;;;;;;;;;;19.80;99.90;;;;;;5043659;28;19928;-70
2022/12/04 10:04:25;;;;;;;;;;;19.80;99.90;;;;;;5044304;28;19924;-68
2022/12/04 10:07:03;;;;;;;;;;;19.80;99.90;;;;;;5043494;28;19940;-71
2022/12/04 10:09:36;;;;;;;;;;;19.80;99.90;;;;;;5044282;28;19931;-70
2022/12/04 10:12:20;;;;;;;;;;;19.80;99.90;;;;;;5042279;28;19921;-71
2022/12/04 10:14:51;;;;;;;;;;;19.80;99.90;;;;;;5042607;28;19924;-71
2022/12/04 10:17:36;;;;;;;;;;;19.70;99.90;;;;;;5044372;28;19913;-71
2022/12/04 10:20:17;;;;;;;;;;;19.70;99.90;;;;;;5044372;28;19925;-71
2022/12/04 10:22:46;;;;;;;;;;;19.80;99.90;;;;;;5043473;28;19912;-71
2022/12/04 10:25:20;;;;;;;;;;;19.80;99.90;;;;;;5044109;28;20382;-70
2022/12/04 10:27:58;;;;;;;;;;;19.70;99.90;;;;;;5044878;28;20466;-69
2022/12/04 10:30:26;;;;;;;;;;;19.70;99.90;;;;;;5046987;28;19929;-71
2022/12/04 10:32:58;;;;;;;;;;;19.70;99.90;;;;;;5047552;28;19913;-70
2022/12/04 10:35:29;;;;;;;;;;;19.60;99.90;;;;;;5046865;28;20371;-69
2022/12/04 10:37:57;;;;;;;;;;;19.70;99.90;;;;;;5047860;28;20526;-70
2022/12/04 10:40:36;;;;;;;;;;;19.60;99.90;;;;;;5046384;28;20481;-68
2022/12/04 10:43:10;;;;;;;;;;;19.70;99.90;;;;;;5044842;28;19916;-68
2022/12/04 10:45:37;;;;;;;;;;;19.70;99.90;;;;;;5047484;28;20287;-69
2022/12/04 10:48:06;;;;;;;;;;;19.60;99.90;;;;;;5046804;28;19923;-70
2022/12/04 10:50:33;;;;;;;;;;;19.60;99.90;;;;;;5047462;28;19947;-70
2022/12/04 10:53:00;;;;;;;;;;;19.60;99.90;;;;;;5045723;28;19928;-68
2022/12/04 10:55:31;;;;;;;;;;;19.60;99.90;;;;;;5047425;28;19913;-68
2022/12/04 10:57:57;;;;;;;;;;;19.60;99.90;;;;;;5044606;28;20620;-70
2022/12/04 11:00:25;;;;;;;;;;;19.60;99.90;;;;;;5047438;28;19913;-70
2022/12/04 11:02:53;;;;;;;;;;;19.60;99.90;;;;;;5046338;28;19912;-69
2022/12/04 11:05:28;;;;;;;;;;;19.60;99.90;;;;;;5045484;28;19924;-70
2022/12/04 11:07:56;;;;;;;;;;;19.60;99.90;;;;;;5046227;28;20372;-71
2022/12/04 11:10:32;;;;;;;;;;;19.60;99.90;;;;;;5046762;28;19943;-71
2022/12/04 11:12:58;;;;;;;;;;;19.60;99.90;;;;;;5044443;28;20517;-68
2022/12/04 11:15:25;;;;;;;;;;;19.60;99.90;;;;;;5046906;28;19920;-70
2022/12/04 11:17:52;;;;;;;;;;;19.50;99.90;;;;;;5045932;28;19917;-70
2022/12/04 11:20:23;;;;;;;;;;;19.50;99.90;;;;;;5046833;28;19912;-70
2022/12/04 11:22:51;;;;;;;;;;;19.50;99.90;;;;;;5046025;28;20625;-70
2022/12/04 11:25:20;;;;;;;;;;;19.50;99.90;;;;;;5047138;28;19983;-69
2022/12/04 11:27:49;;;;;;;;;;;19.60;99.90;;;;;;5045236;28;19924;-69
2022/12/04 11:30:19;;;;;;;;;;;19.60;99.90;;;;;;5030780;28;19971;-71
2022/12/04 11:32:46;;;;;;;;;;;19.60;99.90;;;;;;5026070;28;20443;-67
2022/12/04 11:35:32;;;;;;;;;;;19.50;99.90;;;;;;5041850;28;19916;-68
2022/12/04 11:38:14;;;;;;;;;;;19.50;99.90;;;;;;5054800;28;20043;-68
2022/12/04 11:40:52;;;;;;;;;;;19.50;99.90;;;;;;5053794;28;19917;-68
2022/12/04 11:43:19;;;;;;;;;;;19.60;99.90;;;;;;5053100;28;19909;-68
2022/12/04 11:45:55;;;;;;;;;;;19.60;99.90;;;;;;5054012;28;20257;-69
2022/12/04 11:48:22;;;;;;;;;;;19.50;99.90;;;;;;5055009;28;19955;-68
2022/12/04 11:50:48;;;;;;;;;;;19.60;99.90;;;;;;5054329;28;19929;-70
2022/12/04 11:53:18;;;;;;;;;;;19.60;99.90;;;;;;5055005;28;19995;-68
2022/12/04 11:55:47;;;;;;;;;;;19.60;99.90;;;;;;5052683;28;19913;-68
2022/12/04 11:58:20;;;;;;;;;;;19.50;99.90;;;;;;5054176;28;19945;-69
2022/12/04 12:00:54;;;;;;;;;;;19.50;99.90;;;;;;5053681;28;20455;-69
2022/12/04 12:03:32;;;;;;;;;;;19.50;99.90;;;;;;5054776;28;19995;-68
2022/12/04 12:06:04;;;;;;;;;;;19.50;99.90;;;;;;5053804;28;19920;-69
2022/12/04 12:08:39;;;;;;;;;;;19.60;99.90;;;;;;5053681;28;19917;-69
2022/12/04 12:11:15;;;;;;;;;;;19.50;99.90;;;;;;5054425;28;19924;-69
2022/12/04 12:13:42;;;;;;;;;;;19.50;99.90;;;;;;5034079;28;20296;-68
2022/12/04 12:16:20;;;;;;;;;;;19.60;99.90;;;;;;5034201;28;19972;-69
2022/12/04 12:19:08;;;;;;;;;;;19.60;99.90;;;;;;5034206;28;20004;-69
2022/12/04 12:21:40;;;;;;;;;;;19.50;99.90;;;;;;5036673;28;19917;-70
2022/12/04 12:24:16;;;;;;;;;;;19.50;99.90;;;;;;5053038;28;20356;-70
2022/12/04 12:26:53;;;;;;;;;;;19.50;99.90;;;;;;5054288;28;19908;-70
2022/12/04 12:29:28;;;;;;;;;;;19.50;99.90;;;;;;5053264;28;19921;-70
2022/12/04 12:31:57;;;;;;;;;;;19.50;99.90;;;;;;5054329;28;19952;-70
2022/12/04 12:34:40;;;;;;;;;;;19.50;99.90;;;;;;5053437;28;19919;-70
2022/12/04 12:37:24;;;;;;;;;;;19.50;99.90;;;;;;5052550;28;20236;-70
2022/12/04 12:39:54;;;;;;;;;;;19.50;99.90;;;;;;5053551;28;19912;-70
2022/12/04 12:42:24;;;;;;;;;;;19.50;99.90;;;;;;5053907;28;19954;-70
2022/12/04 12:45:17;;;;;;;;;;;19.50;99.90;;;;;;5052962;28;19959;-70
2022/12/04 12:47:47;;;;;;;;;;;19.50;99.90;;;;;;5049204;28;20011;-70
2022/12/04 12:50:13;;;;;;;;;;;19.50;99.90;;;;;;5053709;28;20360;-71
2022/12/04 12:52:47;;;;;;;;;;;19.50;99.90;;;;;;5052995;28;19923;-69
2022/12/04 12:55:16;;;;;;;;;;;19.40;99.90;;;;;;5053821;28;19915;-70
2022/12/04 12:57:49;;;;;;;;;;;19.40;99.90;;;;;;5052624;28;19929;-70
2022/12/04 13:00:17;;;;;;;;;;;19.40;99.90;;;;;;5052376;28;20324;-70
2022/12/04 13:02:57;;;;;;;;;;;19.30;99.90;;;;;;5045307;28;19924;-71
2022/12/04 13:05:33;;;;;;;;;;;19.30;99.90;;;;;;5053664;28;20322;-70
2022/12/04 13:08:03;;;;;;;;;;;19.30;99.90;;;;;;5052790;28;19916;-71
2022/12/04 13:10:33;;;;;;;;;;;19.30;99.90;;;;;;5053426;28;19921;-71
2022/12/04 13:13:02;;;;;;;;;;;19.30;99.90;;;;;;5052638;28;20000;-69
2022/12/04 13:15:40;;;;;;;;;;;19.30;99.90;;;;;;5053443;28;19909;-71
2022/12/04 13:18:08;;;;;;;;;;;19.40;99.90;;;;;;5037079;28;19917;-71
2022/12/04 13:20:40;;;;;;;;;;;19.40;99.90;;;;;;5053530;28;19916;-71
2022/12/04 13:23:16;;;;;;;;;;;19.30;99.90;;;;;;5052310;28;20310;-71
2022/12/04 13:25:51;;;;;;;;;;;19.30;99.90;;;;;;5053404;28;19908;-71
2022/12/04 13:28:35;;;;;;;;;;;19.30;99.90;;;;;;5052494;28;20356;-71
2022/12/04 13:31:13;;;;;;;;;;;19.30;99.90;;;;;;5053110;28;19917;-71
2022/12/04 13:33:40;;;;;;;;;;;19.30;99.90;;;;;;5051191;28;19917;-71
2022/12/04 13:36:07;;;;;;;;;;;19.30;99.90;;;;;;5052433;28;19916;-71
2022/12/04 13:38:40;;;;;;;;;;;19.40;99.90;;;;;;5053325;28;19909;-71
2022/12/04 13:41:10;;;;;;;;;;;19.30;99.90;;;;;;5052219;28;20420;-71
2022/12/04 13:43:45;;;;;;;;;;;19.30;99.90;;;;;;5053218;28;19916;-71
2022/12/04 13:46:30;;;;;;;;;;;19.30;99.90;;;;;;5051310;28;19913;-70
2022/12/04 13:49:14;;;;;;;;;;;19.30;99.90;;;;;;5052835;28;20367;-71
2022/12/04 13:51:41;;;;;;;;;;;19.30;99.90;;;;;;5052248;28;19923;-70
2022/12/04 13:54:10;;;;;;;;;;;19.30;99.90;;;;;;5053204;28;19913;-70
2022/12/04 13:56:42;;;;;;;;;;;19.30;99.90;;;;;;5051779;28;19921;-70
2022/12/04 13:59:32;;;;;;;;;;;19.30;99.90;;;;;;5052715;28;19913;-71
2022/12/04 14:02:17;;;;;;;;;;;19.30;99.90;;;;;;5053102;28;19913;-71
2022/12/04 14:04:45;;;;;;;;;;;19.40;99.90;;;;;;5057093;28;19909;-71
2022/12/04 14:07:23;;;;;;;;;;;19.40;99.90;;;;;;5056002;28;19999;-71
2022/12/04 14:09:52;;;;;;;;;;;19.40;99.90;;;;;;5056941;28;19917;-71
2022/12/04 14:12:24;;;;;;;;;;;19.30;99.90;;;;;;5056101;28;19913;-70
2022/12/04 14:14:55;;;;;;;;;;;19.30;99.90;;;;;;5055674;28;20457;-67
2022/12/04 14:17:26;;;;;;;;;;;19.30;99.90;;;;;;5055691;28;19920;-67
2022/12/04 14:19:57;;;;;;;;;;;19.30;99.90;;;;;;5056628;28;20267;-68
2022/12/04 14:22:43;;;;;;;;;;;19.30;99.90;;;;;;5054851;28;19913;-68
2022/12/04 14:25:13;;;;;;;;;;;19.30;99.90;;;;;;5055706;28;20011;-68
2022/12/04 14:27:50;;;;;;;;;;;19.30;99.90;;;;;;5055265;28;19919;-68
2022/12/04 14:30:23;;;;;;;;;;;19.30;99.90;;;;;;5056351;28;19917;-68
2022/12/04 14:32:52;;;;;;;;;;;19.20;99.90;;;;;;5055623;28;19966;-68
2022/12/04 14:35:22;;;;;;;;;;;19.20;99.90;;;;;;5055845;28;19955;-68
2022/12/04 14:37:51;;;;;;;;;;;19.20;99.90;;;;;;5055476;28;19920;-68
2022/12/04 14:40:21;;;;;;;;;;;19.10;99.90;;;;;;5055048;28;19913;-67
2022/12/04 14:42:49;;;;;;;;;;;19.10;99.90;;;;;;5054976;28;19913;-67
2022/12/04 14:45:39;;;;;;;;;;;19.10;99.90;;;;;;5055456;28;19913;-68
2022/12/04 14:48:23;;;;;;;;;;;19.10;99.90;;;;;;5056220;28;19909;-68